Time;durP1;ratioP1;P1;durP2;ratioP2;P2;SDS_P1;SDS_P2;PMS_P1;PMS_P2;Temp;Humidity;BMP_temperature;BMP_pressure;BME280_temperature;BME280_humidity;BME280_pressure;Samples;Min_cycle;Max_cycle;Signal;HPM_P1;HPM_P2
2023/05/28 00:01:29;;;;;;;20.93;6.33;;;;;;;-145.18;100.00;46644.78;5056292;28;20035;-63
2023/05/28 00:03:55;;;;;;;23.17;6.97;;;;;;;-145.18;100.00;46646.72;5055938;28;20474;-63
2023/05/28 00:06:20;;;;;;;19.17;6.30;;;;;;;-145.18;100.00;46681.88;5056298;28;20032;-63
2023/05/28 00:08:45;;;;;;;14.77;7.63;;;;;;;-145.18;100.00;46650.63;5037908;28;20060;-63
2023/05/28 00:11:11;;;;;;;19.67;6.63;;;;;;;-145.18;100.00;46648.69;5055942;28;20112;-63
2023/05/28 00:13:36;;;;;;;16.27;5.93;;;;;;;-145.18;100.00;46683.84;5036977;28;20417;-63
2023/05/28 00:16:02;;;;;;;21.63;7.03;;;;;;;-145.18;100.00;46646.72;5055975;28;20504;-63
2023/05/28 00:18:28;;;;;;;12.47;5.17;;;;;;;-145.18;100.00;46650.63;5055746;28;20033;-63
2023/05/28 00:20:53;;;;;;;17.97;6.60;;;;;;;-145.18;100.00;46677.97;5037967;28;20112;-63
2023/05/28 00:23:19;;;;;;;16.13;5.70;;;;;;;-145.18;100.00;46644.78;5055785;28;20029;-63
2023/05/28 00:25:44;;;;;;;18.07;6.10;;;;;;;-145.18;100.00;46644.78;5018422;28;20044;-63
2023/05/28 00:28:09;;;;;;;22.60;7.23;;;;;;;-145.18;100.00;46681.88;5035684;28;20079;-63
2023/05/28 00:30:35;;;;;;;16.13;5.50;;;;;;;-145.18;100.00;46679.94;5035027;28;20080;-63
2023/05/28 00:33:00;;;;;;;16.33;6.27;;;;;;;-145.18;100.00;46644.78;5018022;28;20038;-63
2023/05/28 00:35:26;;;;;;;20.47;6.43;;;;;;;-145.18;100.00;46681.88;5035223;28;20033;-63
2023/05/28 00:37:52;;;;;;;17.43;6.63;;;;;;;-145.18;100.00;46646.72;5035742;28;20052;-63
2023/05/28 00:40:17;;;;;;;24.23;6.60;;;;;;;-145.18;100.00;46646.72;5035588;28;20037;-63
2023/05/28 00:42:43;;;;;;;22.43;6.90;;;;;;;-145.18;100.00;46660.41;5017961;28;20033;-63
2023/05/28 00:45:09;;;;;;;15.60;5.77;;;;;;;-145.18;100.00;46679.94;5035495;28;20038;-63
2023/05/28 00:47:35;;;;;;;25.20;7.17;;;;;;;-145.18;100.00;46679.94;5017590;28;20482;-63
2023/05/28 00:50:01;;;;;;;19.67;7.87;;;;;;;-145.18;100.00;46660.41;5035220;28;20033;-63
2023/05/28 00:52:27;;;;;;;16.00;5.43;;;;;;;-145.18;100.00;46679.94;5017318;28;20392;-63
2023/05/28 00:54:55;;;;;;;17.27;6.00;;;;;;;-145.18;100.00;46681.88;5035525;28;20117;-63
2023/05/28 00:57:23;;;;;;;17.83;6.53;;;;;;;-145.18;100.00;46679.94;5035311;28;20470;-63
2023/05/28 00:59:50;;;;;;;16.50;6.67;;;;;;;-145.18;100.00;46681.88;5051385;28;20552;-63
2023/05/28 01:02:15;;;;;;;19.13;6.77;;;;;;;-145.18;100.00;46679.94;5054731;28;20060;-63
2023/05/28 01:04:41;;;;;;;19.97;6.60;;;;;;;-145.18;100.00;46681.88;5037234;28;20064;-63
2023/05/28 01:07:06;;;;;;;13.70;6.00;;;;;;;-145.18;100.00;46677.97;5036894;28;20466;-63
2023/05/28 01:09:32;;;;;;;18.00;7.67;;;;;;;-145.18;100.00;46679.94;5054409;28;20045;-63
2023/05/28 01:11:58;;;;;;;26.20;6.87;;;;;;;-145.18;100.00;46679.94;5054945;28;20037;-63
2023/05/28 01:14:24;;;;;;;16.67;6.10;;;;;;;-145.18;100.00;46679.94;5047985;28;20030;-63
2023/05/28 01:16:50;;;;;;;18.93;6.30;;;;;;;-145.18;100.00;46681.88;5034990;28;20029;-63
2023/05/28 01:19:18;;;;;;;24.47;7.17;;;;;;;-145.18;100.00;46642.81;5034765;28;20038;-63
2023/05/28 01:21:45;;;;;;;24.93;6.10;;;;;;;-145.18;100.00;46642.81;5039428;28;20479;-63
2023/05/28 01:24:13;;;;;;;20.60;6.57;;;;;;;-145.18;100.00;46644.78;5074355;28;20477;-64
2023/05/28 01:26:40;;;;;;;17.23;6.47;;;;;;;-145.18;100.00;46644.78;5074763;28;20397;-63
2023/05/28 01:29:16;;;;;;;17.63;6.67;;;;;;;-145.18;100.00;46679.94;5074513;28;20036;-63
2023/05/28 01:31:42;;;;;;;17.43;6.57;;;;;;;-145.18;100.00;46642.81;5054625;28;20037;-63
2023/05/28 01:34:09;;;;;;;21.80;6.30;;;;;;;-145.18;100.00;46681.88;5054237;28;20095;-64
2023/05/28 01:36:37;;;;;;;19.40;6.63;;;;;;;-145.18;100.00;46679.94;5049759;28;20067;-63
2023/05/28 01:39:04;;;;;;;17.30;6.20;;;;;;;-145.18;100.00;46681.88;5054390;28;20082;-63
2023/05/28 01:41:30;;;;;;;19.37;6.70;;;;;;;-145.18;100.00;46681.88;5054521;28;20108;-63
2023/05/28 01:43:56;;;;;;;19.13;6.77;;;;;;;-145.18;100.00;46683.84;5054202;28;20146;-63
2023/05/28 01:46:23;;;;;;;19.00;6.93;;;;;;;-145.18;100.00;46681.88;5050925;28;20039;-63
2023/05/28 01:48:49;;;;;;;15.50;6.67;;;;;;;-145.18;100.00;46644.78;5033973;28;20040;-63
2023/05/28 01:51:22;;;;;;;20.77;6.60;;;;;;;-145.18;100.00;46644.78;5034051;28;20095;-63
2023/05/28 01:53:47;;;;;;;18.53;6.80;;;;;;;-145.18;100.00;46681.88;5034051;28;20422;-64
2023/05/28 01:56:13;;;;;;;17.00;6.57;;;;;;;-145.18;100.00;46648.69;5034096;28;20040;-63
2023/05/28 01:58:38;;;;;;;20.60;5.83;;;;;;;-145.18;100.00;46646.72;5039270;28;20040;-63
2023/05/28 02:01:15;;;;;;;16.43;6.70;;;;;;;-145.18;100.00;46646.72;5054053;28;20474;-63
2023/05/28 02:03:41;;;;;;;16.73;5.97;;;;;;;-145.18;100.00;46644.78;5053463;28;20037;-63
2023/05/28 02:06:06;;;;;;;18.83;6.57;;;;;;;-145.18;100.00;46646.72;5050641;28;20588;-63
2023/05/28 02:08:31;;;;;;;16.60;6.70;;;;;;;-145.18;100.00;46650.63;5034133;28;20033;-63
2023/05/28 02:10:57;;;;;;;16.60;6.90;;;;;;;-145.18;100.00;46650.63;5033686;28;20060;-64
2023/05/28 02:13:22;;;;;;;15.47;5.83;;;;;;;-145.18;100.00;46646.72;5033956;28;20483;-63
2023/05/28 02:15:48;;;;;;;18.43;6.90;;;;;;;-145.18;100.00;46681.88;5015187;28;20083;-63
2023/05/28 02:18:14;;;;;;;19.17;6.80;;;;;;;-145.18;100.00;46652.59;5033620;28;20048;-63
2023/05/28 02:20:42;;;;;;;19.70;7.03;;;;;;;-145.18;100.00;46646.72;5031301;28;20513;-63
2023/05/28 02:23:07;;;;;;;19.60;7.03;;;;;;;-145.18;100.00;46646.72;5033710;28;20411;-63
2023/05/28 02:25:32;;;;;;;17.67;6.37;;;;;;;-145.18;100.00;46644.78;5033434;28;20037;-63
2023/05/28 02:27:58;;;;;;;14.43;6.27;;;;;;;-145.18;100.00;46648.69;5033112;28;20029;-63
2023/05/28 02:30:23;;;;;;;21.63;6.60;;;;;;;-145.18;100.00;46679.94;5033141;28;20057;-63
2023/05/28 02:32:49;;;;;;;23.50;6.00;;;;;;;-145.18;100.00;46644.78;5015553;28;20034;-63
2023/05/28 02:35:15;;;;;;;22.73;6.87;;;;;;;-145.18;100.00;46677.97;5035063;28;20475;-63
2023/05/28 02:37:40;;;;;;;21.00;7.50;;;;;;;-145.18;100.00;46681.88;5033083;28;20562;-63
2023/05/28 02:40:06;;;;;;;15.93;6.90;;;;;;;-145.18;100.00;46644.78;5051138;28;20163;-63
2023/05/28 02:42:32;;;;;;;16.67;6.33;;;;;;;-145.18;100.00;46646.72;5052942;28;20127;-63
2023/05/28 02:44:57;;;;;;;18.60;7.17;;;;;;;-145.18;100.00;46679.94;5053351;28;20188;-63
2023/05/28 02:47:23;;;;;;;18.27;6.27;;;;;;;-145.18;100.00;46681.88;5052858;28;20033;-63
2023/05/28 02:49:48;;;;;;;22.73;7.13;;;;;;;-145.18;100.00;46679.94;5036630;28;20037;-63
2023/05/28 02:52:13;;;;;;;17.27;6.93;;;;;;;-145.18;100.00;46660.41;5032907;28;20114;-64
2023/05/28 02:54:39;;;;;;;27.30;7.20;;;;;;;-145.18;100.00;46660.41;5033130;28;20038;-64
2023/05/28 02:57:04;;;;;;;23.83;7.60;;;;;;;-145.18;100.00;46660.41;5033172;28;20029;-63
2023/05/28 02:59:30;;;;;;;21.63;7.13;;;;;;;-145.18;100.00;46660.41;5048200;28;20052;-63
2023/05/28 03:01:55;;;;;;;21.03;7.23;;;;;;;-145.18;100.00;46660.41;5052560;28;20554;-63
2023/05/28 03:04:21;;;;;;;13.13;6.67;;;;;;;-145.18;100.00;46660.41;5052807;28;20043;-64
2023/05/28 03:06:46;;;;;;;21.17;7.30;;;;;;;-145.18;100.00;46660.41;5034803;28;20518;-63
2023/05/28 03:09:12;;;;;;;13.17;6.53;;;;;;;-145.18;100.00;46679.94;5035131;28;20478;-63
2023/05/28 03:11:37;;;;;;;18.70;6.57;;;;;;;-145.18;100.00;46660.41;5051944;28;20124;-63
2023/05/28 03:14:02;;;;;;;18.60;6.90;;;;;;;-145.18;100.00;46660.41;5052443;28;20065;-64
2023/05/28 03:16:28;;;;;;;23.80;7.50;;;;;;;-145.18;100.00;46660.41;5052530;28;20033;-63
2023/05/28 03:18:53;;;;;;;18.83;7.27;;;;;;;-145.18;100.00;46660.41;5052668;28;20474;-63
2023/05/28 03:21:19;;;;;;;16.70;6.50;;;;;;;-145.18;100.00;46660.41;5021724;28;20037;-63
2023/05/28 03:23:44;;;;;;;12.77;6.57;;;;;;;-145.18;100.00;46660.41;5032335;28;20498;-64
2023/05/28 03:26:09;;;;;;;22.47;7.93;;;;;;;-145.18;100.00;46660.41;5032372;28;20029;-64
2023/05/28 03:28:35;;;;;;;21.90;8.33;;;;;;;-145.18;100.00;46660.41;5032422;28;20053;-64
2023/05/28 03:31:01;;;;;;;24.97;7.37;;;;;;;-145.18;100.00;46660.41;5032139;28;20080;-63
2023/05/28 03:33:26;;;;;;;21.37;6.87;;;;;;;-145.18;100.00;46660.41;5033833;28;20056;-64
2023/05/28 03:35:52;;;;;;;21.37;7.30;;;;;;;-145.18;100.00;46660.41;5034354;28;20290;-64
2023/05/28 03:38:17;;;;;;;26.83;7.43;;;;;;;-145.18;100.00;46660.41;5052390;28;20533;-63
2023/05/28 03:40:43;;;;;;;15.77;7.73;;;;;;;-145.18;100.00;46660.41;5052228;28;20040;-64
2023/05/28 03:43:08;;;;;;;19.87;7.53;;;;;;;-145.18;100.00;46660.41;5052330;28;20068;-64
2023/05/28 03:45:33;;;;;;;19.93;6.80;;;;;;;-145.18;100.00;46660.41;5014202;28;20396;-64
2023/05/28 03:48:02;;;;;;;21.27;7.13;;;;;;;-145.18;100.00;46677.97;5014861;28;20037;-64
2023/05/28 03:50:28;;;;;;;18.53;6.87;;;;;;;-145.18;100.00;46677.97;5031868;28;20090;-64
2023/05/28 03:52:53;;;;;;;21.20;7.87;;;;;;;-145.18;100.00;46660.41;5014397;28;20037;-64
2023/05/28 03:55:18;;;;;;;20.03;7.83;;;;;;;-145.18;100.00;46660.41;5032437;28;20034;-64
2023/05/28 03:57:44;;;;;;;18.30;7.20;;;;;;;-145.18;100.00;46677.97;5032381;28;20090;-64
2023/05/28 04:00:10;;;;;;;19.83;7.60;;;;;;;-145.18;100.00;46677.97;5033454;28;20029;-64
2023/05/28 04:02:35;;;;;;;20.37;7.30;;;;;;;-145.18;100.00;46660.41;5031619;28;20029;-64
2023/05/28 04:05:01;;;;;;;23.87;8.50;;;;;;;-145.18;100.00;46677.97;5015051;28;20037;-64
2023/05/28 04:07:26;;;;;;;21.97;8.00;;;;;;;-145.18;100.00;46660.41;5032152;28;20479;-64
2023/05/28 04:09:51;;;;;;;27.67;8.40;;;;;;;-145.18;100.00;46677.97;5012964;28;20036;-64
2023/05/28 04:12:17;;;;;;;23.63;7.70;;;;;;;-145.18;100.00;46677.97;5042062;28;20037;-64
2023/05/28 04:14:42;;;;;;;28.37;8.93;;;;;;;-145.18;100.00;46660.41;5025236;28;20029;-64
2023/05/28 04:17:10;;;;;;;27.90;7.47;;;;;;;-145.18;100.00;46660.41;5040079;28;20379;-64
2023/05/28 04:19:36;;;;;;;21.50;7.17;;;;;;;-145.18;100.00;46660.41;5042205;28;20040;-64
2023/05/28 04:22:01;;;;;;;17.63;7.33;;;;;;;-145.18;100.00;46676.03;5035551;28;20259;-64
2023/05/28 04:24:27;;;;;;;25.57;7.27;;;;;;;-145.18;100.00;46636.94;5031548;28;20509;-64
2023/05/28 04:26:53;;;;;;;22.57;8.10;;;;;;;-145.18;100.00;46676.03;5013849;28;20172;-64
2023/05/28 04:29:18;;;;;;;20.23;7.57;;;;;;;-145.18;100.00;46660.41;5017348;28;20388;-64
2023/05/28 04:31:44;;;;;;;21.77;8.60;;;;;;;-145.18;100.00;46660.41;5040604;28;20029;-64
2023/05/28 04:34:10;;;;;;;26.13;8.10;;;;;;;-145.18;100.00;46660.41;5038712;28;20025;-64
2023/05/28 04:36:36;;;;;;;19.40;7.17;;;;;;;-145.18;100.00;46660.41;5039066;28;20538;-64
2023/05/28 04:39:04;;;;;;;20.53;8.03;;;;;;;-145.18;100.00;46660.41;5024322;28;20172;-64
2023/05/28 04:41:30;;;;;;;16.27;7.07;;;;;;;-145.18;100.00;46660.41;5044298;28;20094;-64
2023/05/28 04:43:56;;;;;;;16.77;7.33;;;;;;;-145.18;100.00;46635.00;5042244;28;20049;-64
2023/05/28 04:46:25;;;;;;;24.23;8.30;;;;;;;-145.18;100.00;46633.06;5023576;28;20605;-64
2023/05/28 04:48:51;;;;;;;25.77;7.57;;;;;;;-145.18;100.00;46631.09;5042090;28;20613;-64
2023/05/28 04:51:18;;;;;;;25.60;8.83;;;;;;;-145.18;100.00;46631.09;5046794;28;20120;-64
2023/05/28 04:53:43;;;;;;;17.73;7.33;;;;;;;-145.18;100.00;46660.41;5025217;28;20028;-64
2023/05/28 04:56:10;;;;;;;19.73;7.27;;;;;;;-145.18;100.00;46636.94;5044464;28;20036;-64
2023/05/28 04:58:36;;;;;;;25.70;8.43;;;;;;;-145.18;100.00;46640.88;5035162;28;20029;-64
2023/05/28 05:01:01;;;;;;;21.03;8.10;;;;;;;-145.18;100.00;46636.94;5035091;28;20391;-64
2023/05/28 05:03:28;;;;;;;15.33;7.83;;;;;;;-145.18;100.00;46640.88;5017692;28;20123;-64
2023/05/28 05:05:53;;;;;;;17.23;7.10;;;;;;;-145.18;100.00;46644.78;5028404;28;20061;-64
2023/05/28 05:08:20;;;;;;;20.03;7.20;;;;;;;-145.18;100.00;46640.88;5054835;28;20503;-64
2023/05/28 05:10:45;;;;;;;17.13;7.10;;;;;;;-145.18;100.00;46640.88;5055035;28;20033;-64
2023/05/28 05:13:10;;;;;;;18.33;6.90;;;;;;;-145.18;100.00;46640.88;5036778;28;20513;-64
2023/05/28 05:15:36;;;;;;;17.63;8.17;;;;;;;-145.18;100.00;46644.78;5054257;28;20039;-64
2023/05/28 05:18:01;;;;;;;24.60;7.50;;;;;;;-145.18;100.00;46646.72;5036959;28;20049;-64
2023/05/28 05:20:27;;;;;;;27.77;7.83;;;;;;;-145.18;100.00;46642.81;5036817;28;20036;-64
2023/05/28 05:22:52;;;;;;;20.50;7.17;;;;;;;-145.18;100.00;46642.81;5039238;28;20033;-64
2023/05/28 05:25:18;;;;;;;16.77;7.00;;;;;;;-145.18;100.00;46642.81;5045250;28;20077;-64
2023/05/28 05:27:43;;;;;;;17.67;7.93;;;;;;;-145.18;100.00;46642.81;5050631;28;20045;-64
2023/05/28 05:30:09;;;;;;;19.70;7.50;;;;;;;-145.18;100.00;46644.78;5054340;28;20064;-64
2023/05/28 05:32:34;;;;;;;19.20;7.57;;;;;;;-145.18;100.00;46648.69;5036944;28;20030;-64
2023/05/28 05:35:00;;;;;;;17.27;6.97;;;;;;;-145.18;100.00;46648.69;5034772;28;20033;-64
2023/05/28 05:37:25;;;;;;;22.30;7.70;;;;;;;-145.18;100.00;46646.72;5035303;28;20045;-64
2023/05/28 05:39:51;;;;;;;18.60;7.13;;;;;;;-145.18;100.00;46646.72;5033897;28;20033;-64
2023/05/28 05:42:16;;;;;;;16.07;6.80;;;;;;;-145.18;100.00;46644.78;5040991;28;20042;-64
2023/05/28 05:44:41;;;;;;;22.00;7.30;;;;;;;-145.18;100.00;46642.81;5023065;28;20398;-64
2023/05/28 05:47:07;;;;;;;21.83;7.87;;;;;;;-145.18;100.00;46642.81;5034417;28;20037;-64
2023/05/28 05:49:33;;;;;;;20.03;7.20;;;;;;;-145.18;100.00;46650.63;5032928;28;20469;-64
2023/05/28 05:51:58;;;;;;;20.17;8.50;;;;;;;-145.18;100.00;46642.81;5045805;28;20466;-65
2023/05/28 05:54:24;;;;;;;21.40;8.30;;;;;;;-145.18;100.00;46642.81;5024583;28;20068;-64
2023/05/28 05:56:49;;;;;;;21.90;7.63;;;;;;;-145.18;100.00;46648.69;5034353;28;20029;-64
2023/05/28 05:59:15;;;;;;;20.17;7.37;;;;;;;-145.18;100.00;46646.72;5034124;28;20437;-64
2023/05/28 06:01:40;;;;;;;24.13;8.03;;;;;;;-145.18;100.00;46648.69;5016200;28;20430;-64
2023/05/28 06:04:06;;;;;;;22.53;8.57;;;;;;;-145.18;100.00;46648.69;5033880;28;20033;-64
2023/05/28 06:06:31;;;;;;;19.33;7.47;;;;;;;-145.18;100.00;46650.63;5052084;28;20029;-64
2023/05/28 06:08:57;;;;;;;23.60;7.50;;;;;;;-145.18;100.00;46650.63;5043548;28;20037;-64
2023/05/28 06:11:25;;;;;;;20.73;7.17;;;;;;;-145.18;100.00;46656.50;5040945;28;20021;-64
2023/05/28 06:13:51;;;;;;;18.63;7.57;;;;;;;-145.18;100.00;46648.69;5033082;28;20033;-64
2023/05/28 06:16:17;;;;;;;18.07;8.27;;;;;;;-145.18;100.00;46652.59;5049007;28;20553;-64
2023/05/28 06:18:44;;;;;;;19.87;9.17;;;;;;;-145.18;100.00;46656.50;5032133;28;20025;-64
2023/05/28 06:21:10;;;;;;;20.50;8.43;;;;;;;-145.18;100.00;46650.63;5031448;28;20041;-64
2023/05/28 06:23:35;;;;;;;16.40;8.20;;;;;;;-145.18;100.00;46650.63;5018320;28;20041;-64
2023/05/28 06:26:01;;;;;;;21.30;9.17;;;;;;;-145.18;100.00;46656.50;5039454;28;20037;-64
2023/05/28 06:28:27;;;;;;;21.13;9.83;;;;;;;-145.18;100.00;46660.41;5042464;28;20106;-64
2023/05/28 06:30:53;;;;;;;24.73;10.03;;;;;;;-145.18;100.00;46660.41;5041790;28;20063;-64
2023/05/28 06:33:18;;;;;;;18.00;8.33;;;;;;;-145.18;100.00;46654.53;5034078;28;20120;-64
2023/05/28 06:35:43;;;;;;;23.83;9.17;;;;;;;-145.18;100.00;46654.53;5035199;28;20061;-64
2023/05/28 06:38:09;;;;;;;18.93;8.60;;;;;;;-145.18;100.00;46662.34;5021192;28;20060;-64
2023/05/28 06:40:34;;;;;;;25.13;8.80;;;;;;;-145.18;100.00;46664.31;5037603;28;20040;-64
2023/05/28 06:43:01;;;;;;;19.23;7.73;;;;;;;-145.18;100.00;46660.41;5044267;28;20497;-64
2023/05/28 06:45:26;;;;;;;20.27;8.50;;;;;;;-145.18;100.00;46650.63;5027110;28;20045;-64
2023/05/28 06:47:52;;;;;;;16.43;7.13;;;;;;;-145.18;100.00;46640.88;5032628;28;20037;-64
2023/05/28 06:50:17;;;;;;;15.70;6.77;;;;;;;-145.18;100.00;46635.00;5050529;28;20401;-64
2023/05/28 06:52:43;;;;;;;25.80;7.50;;;;;;;-145.18;100.00;46633.06;5049761;28;20047;-64
2023/05/28 06:55:08;;;;;;;15.83;7.47;;;;;;;-145.18;100.00;46633.06;5051916;28;20108;-64
2023/05/28 06:57:36;;;;;;;20.90;6.90;;;;;;;-145.18;100.00;46625.22;5051867;28;20044;-64
2023/05/28 07:00:03;;;;;;;18.07;7.53;;;;;;;-145.18;100.00;46595.94;5052181;28;20033;-64
2023/05/28 07:02:29;;;;;;;14.40;7.17;;;;;;;-145.18;100.00;46576.41;5051694;28;20040;-64
2023/05/28 07:04:55;;;;;;;17.70;7.13;;;;;;;-145.18;100.00;46564.69;5047302;28;20119;-64
2023/05/28 07:07:21;;;;;;;17.57;7.10;;;;;;;-145.18;100.00;46570.53;5051724;28;20427;-64
2023/05/28 07:09:46;;;;;;;15.93;7.37;;;;;;;-145.18;100.00;46552.97;5033788;28;20079;-64
2023/05/28 07:12:11;;;;;;;20.17;7.00;;;;;;;-145.18;100.00;46533.44;5033854;28;20087;-64
2023/05/28 07:14:37;;;;;;;21.63;6.97;;;;;;;-145.18;100.00;46533.44;5046813;28;20037;-64
2023/05/28 07:17:02;;;;;;;17.17;7.20;;;;;;;-145.18;100.00;46533.44;5041786;28;20033;-65
2023/05/28 07:19:28;;;;;;;17.63;6.73;;;;;;;-145.18;100.00;46531.47;5034161;28;20028;-64
2023/05/28 07:21:53;;;;;;;19.07;6.47;;;;;;;-145.18;100.00;46529.53;5033455;28;20029;-64
2023/05/28 07:24:18;;;;;;;17.70;7.00;;;;;;;-145.18;100.00;46533.44;5051969;28;20029;-64
2023/05/28 07:26:44;;;;;;;14.57;6.23;;;;;;;-145.18;100.00;46541.25;5046432;28;20037;-64
2023/05/28 07:29:10;;;;;;;13.87;6.83;;;;;;;-145.18;100.00;46541.25;5051545;28;20078;-64
2023/05/28 07:31:38;;;;;;;23.87;6.87;;;;;;;-145.18;100.00;46547.09;5051210;28;20040;-64
2023/05/28 07:34:03;;;;;;;14.27;6.37;;;;;;;-145.18;100.00;46545.16;5039260;28;20040;-64
2023/05/28 07:36:29;;;;;;;12.77;5.57;;;;;;;-145.18;100.00;46547.09;5013357;28;20124;-64
2023/05/28 07:38:54;;;;;;;14.37;5.67;;;;;;;-145.18;100.00;46556.88;5017073;28;20124;-64
2023/05/28 07:41:21;;;;;;;14.17;5.67;;;;;;;-145.18;100.00;46556.88;5023429;28;20131;-64
2023/05/28 07:43:48;;;;;;;13.57;5.80;;;;;;;-145.18;100.00;46547.09;5016407;28;20056;-64
2023/05/28 07:46:14;;;;;;;15.77;5.77;;;;;;;-145.18;100.00;46556.88;5034183;28;20022;-64
2023/05/28 07:48:39;;;;;;;14.13;5.87;;;;;;;-145.18;100.00;46543.19;5031950;28;20029;-64
2023/05/28 07:51:05;;;;;;;12.03;5.47;;;;;;;-145.18;100.00;46552.97;5042117;28;20029;-64
2023/05/28 07:53:31;;;;;;;12.90;5.83;;;;;;;-145.18;100.00;46556.88;5038819;28;20064;-64
2023/05/28 07:55:56;;;;;;;11.53;5.13;;;;;;;-145.18;100.00;46566.63;5035956;28;20029;-64
2023/05/28 07:58:22;;;;;;;9.47;4.80;;;;;;;-145.18;100.00;46562.72;5036132;28;20483;-64
2023/05/28 08:00:47;;;;;;;14.90;5.73;;;;;;;-145.18;100.00;46572.50;5035301;28;20029;-64
2023/05/28 08:03:12;;;;;;;13.97;5.73;;;;;;;-145.18;100.00;46566.63;5033219;28;20036;-64
2023/05/28 08:05:38;;;;;;;15.87;5.00;;;;;;;-145.18;100.00;46582.25;5035412;28;20106;-64
2023/05/28 08:08:03;;;;;;;17.10;6.10;;;;;;;-145.18;100.00;46590.06;5034859;28;20056;-64
2023/05/28 08:10:29;;;;;;;12.37;5.40;;;;;;;-145.18;100.00;46599.84;5037530;28;20033;-64
2023/05/28 08:12:55;;;;;;;10.20;5.13;;;;;;;-145.18;100.00;46597.88;5037002;28;20029;-64
2023/05/28 08:15:21;;;;;;;14.93;5.47;;;;;;;-145.18;100.00;46611.56;5047232;28;20036;-65
2023/05/28 08:17:46;;;;;;;18.03;5.87;;;;;;;-145.18;100.00;46607.66;5036312;28;20033;-65
2023/05/28 08:20:12;;;;;;;12.80;5.17;;;;;;;-145.18;100.00;46605.69;5038820;28;20029;-64
2023/05/28 08:22:38;;;;;;;14.20;5.17;;;;;;;-145.18;100.00;46615.47;5021537;28;20116;-64
2023/05/28 08:25:04;;;;;;;11.13;5.20;;;;;;;-145.18;100.00;46650.63;5035176;28;20426;-65
2023/05/28 08:27:30;;;;;;;11.33;4.63;;;;;;;-145.18;100.00;46742.44;5041382;28;20512;-64
2023/05/28 08:29:56;;;;;;;10.40;4.80;;;;;;;-145.18;100.00;46728.75;5037857;28;20045;-64
2023/05/28 08:32:21;;;;;;;10.23;4.50;;;;;;;-145.18;100.00;47166.34;5021678;28;20759;-65
2023/05/28 08:34:47;;;;;;;11.80;4.60;;;;;;;-145.18;100.00;47115.56;5019749;28;20029;-64
2023/05/28 08:37:13;;;;;;;8.43;4.33;;;;;;;-145.18;100.00;47264.03;5036604;28;20171;-64
2023/05/28 08:39:38;;;;;;;9.93;4.47;;;;;;;-145.18;100.00;47228.84;5038371;28;20028;-65
2023/05/28 08:42:04;;;;;;;11.03;4.90;;;;;;;-145.18;100.00;47215.19;5038911;28;20502;-65
2023/05/28 08:44:29;;;;;;;14.90;4.23;;;;;;;-145.18;100.00;47181.97;5047546;28;20028;-65
2023/05/28 08:46:55;;;;;;;11.33;5.17;;;;;;;-145.18;100.00;47191.75;5050075;28;20033;-65
2023/05/28 08:49:30;;;;;;;9.47;4.33;;;;;;;-145.18;100.00;47166.34;5051531;28;20021;-64
2023/05/28 08:51:59;;;;;;;7.60;4.40;;;;;;;-145.18;100.00;47152.66;5054605;28;20029;-65
2023/05/28 08:54:25;;;;;;;16.70;4.90;;;;;;;-145.18;100.00;47152.66;5038440;28;20021;-65
2023/05/28 08:56:50;;;;;;;13.30;4.53;;;;;;;-145.18;100.00;47127.28;5019310;28;20029;-65
2023/05/28 08:59:16;;;;;;;14.53;4.47;;;;;;;-145.18;100.00;47121.41;5034118;28;20029;-65
2023/05/28 09:01:42;;;;;;;8.10;4.30;;;;;;;-145.18;100.00;47119.47;5046049;28;20100;-65
2023/05/28 09:04:07;;;;;;;6.17;3.27;;;;;;;-145.18;100.00;47111.66;5042826;28;20048;-65
2023/05/28 09:06:37;;;;;;;8.30;4.40;;;;;;;-145.18;100.00;47113.59;5034522;28;20026;-65
2023/05/28 09:09:03;;;;;;;12.37;4.60;;;;;;;-145.18;100.00;47097.97;5039873;28;20044;-65
2023/05/28 09:11:28;;;;;;;10.13;4.23;;;;;;;-145.18;100.00;47097.97;5043096;28;20033;-65
2023/05/28 09:13:53;;;;;;;9.80;3.70;;;;;;;-145.18;100.00;47103.81;5039751;28;20025;-65
2023/05/28 09:16:23;;;;;;;11.07;4.27;;;;;;;-145.18;100.00;47086.25;5043782;28;20389;-65
2023/05/28 09:19:02;;;;;;;9.47;4.43;;;;;;;-145.18;100.00;47101.88;5037675;28;20044;-65
2023/05/28 09:21:28;;;;;;;9.00;4.30;;;;;;;-145.18;100.00;47096.00;5038269;28;20445;-64
2023/05/28 09:23:53;;;;;;;7.40;3.27;;;;;;;-145.18;100.00;47086.25;5036343;28;20033;-65
2023/05/28 09:26:22;;;;;;;8.10;3.77;;;;;;;-145.18;100.00;47097.97;5036193;28;20060;-65
2023/05/28 09:28:50;;;;;;;13.33;4.17;;;;;;;-145.18;100.00;47078.44;5037240;28;20048;-64
2023/05/28 09:31:16;;;;;;;9.70;3.50;;;;;;;-145.18;100.00;47082.34;5033931;28;20041;-65
2023/05/28 09:33:44;;;;;;;12.93;4.23;;;;;;;-145.18;100.00;47078.44;5037325;28;20099;-65
2023/05/28 09:36:10;;;;;;;7.90;4.43;;;;;;;-145.18;100.00;47068.66;5036662;28;20446;-65
2023/05/28 09:38:40;;;;;;;9.43;3.23;;;;;;;-145.18;100.00;47074.53;5027285;28;20116;-65
2023/05/28 09:41:16;;;;;;;9.33;3.83;;;;;;;-145.18;100.00;47070.63;5040194;28;20013;-65
2023/05/28 09:43:42;;;;;;;9.63;4.00;;;;;;;-145.18;100.00;47088.19;5023825;28;20029;-65
2023/05/28 09:46:08;;;;;;;9.50;3.30;;;;;;;-145.18;100.00;47092.09;5040417;28;20041;-65
2023/05/28 09:48:34;;;;;;;14.43;3.90;;;;;;;-145.18;100.00;47088.19;5038315;28;20419;-65
2023/05/28 09:51:04;;;;;;;11.97;4.20;;;;;;;-145.18;100.00;47076.47;5020997;28;20072;-64
2023/05/28 09:53:34;;;;;;;10.27;3.87;;;;;;;-145.18;100.00;47080.38;5019695;28;20706;-65
2023/05/28 09:56:00;;;;;;;7.27;4.13;;;;;;;-145.18;100.00;47060.84;5037903;28;20049;-65
2023/05/28 09:58:36;;;;;;;9.03;3.97;;;;;;;-145.18;100.00;47056.94;5035617;28;20030;-65
2023/05/28 10:01:04;;;;;;;;;;;;;;;-145.18;100.00;47049.13;5037672;28;20042;-65
2023/05/28 10:03:43;;;;;;;8.77;3.97;;;;;;;-145.18;100.00;47066.72;5034383;28;19924;-64
2023/05/28 10:06:11;;;;;;;7.17;3.37;;;;;;;-145.18;100.00;47066.72;5036593;28;20029;-64
2023/05/28 10:08:38;;;;;;;12.77;3.97;;;;;;;-145.18;100.00;47051.09;5035556;28;20017;-64
2023/05/28 10:11:08;;;;;;;8.17;3.40;;;;;;;-145.18;100.00;47056.94;5036399;28;20028;-64
2023/05/28 10:13:34;;;;;;;6.33;3.10;;;;;;;-145.18;100.00;47051.09;5038922;28;20471;-64
2023/05/28 10:16:00;;;;;;;10.73;4.30;;;;;;;-145.18;100.00;47051.09;5036331;28;20039;-65
2023/05/28 10:18:27;;;;;;;11.37;4.03;;;;;;;-145.18;100.00;47045.22;5032853;28;20017;-65
2023/05/28 10:20:52;;;;;;;8.23;4.03;;;;;;;-145.18;100.00;47035.44;5026432;28;20029;-65
2023/05/28 10:23:20;;;;;;;10.30;4.20;;;;;;;-145.18;100.00;47051.09;5036761;28;20035;-65
2023/05/28 10:25:46;;;;;;;6.40;3.50;;;;;;;-145.18;100.00;47033.50;5041057;28;20024;-65
2023/05/28 10:28:15;;;;;;;10.77;4.00;;;;;;;-145.18;100.00;47070.63;5040413;28;20035;-65
2023/05/28 10:30:41;;;;;;;10.67;4.07;;;;;;;-145.18;100.00;47056.94;5034392;28;20045;-65
2023/05/28 10:33:15;;;;;;;13.70;3.73;;;;;;;-145.18;100.00;47025.69;5040512;28;20044;-65
2023/05/28 10:35:53;;;;;;;10.65;4.25;;;;;;;-145.18;100.00;47021.78;5039809;28;20025;-65
2023/05/28 10:38:19;;;;;;;7.20;3.60;;;;;;;-145.18;100.00;47029.59;5033607;28;20029;-65
2023/05/28 10:40:44;;;;;;;10.27;3.70;;;;;;;-145.18;100.00;47021.78;5038354;28;20390;-65
2023/05/28 10:43:38;;;;;;;11.87;4.13;;;;;;;-145.18;100.00;47021.78;5044564;28;20044;-65
2023/05/28 10:46:11;;;;;;;7.47;3.30;;;;;;;-145.18;100.00;47013.97;5045882;28;20532;-65
2023/05/28 10:48:41;;;;;;;7.37;3.63;;;;;;;-145.18;100.00;47015.91;5040339;28;20044;-65
2023/05/28 10:51:07;;;;;;;12.60;3.70;;;;;;;-145.18;100.00;46998.34;5039072;28;20551;-65
2023/05/28 10:53:32;;;;;;;15.37;5.23;;;;;;;-145.18;100.00;47004.19;5034324;28;20029;-65
2023/05/28 10:55:58;;;;;;;10.07;4.67;;;;;;;-145.18;100.00;46996.38;5034923;28;20024;-66
2023/05/28 10:58:24;;;;;;;9.60;4.07;;;;;;;-145.18;100.00;47002.25;5033960;28;20028;-65